createdAt,value
2017-10-29T00:04:14.512Z,8.50
2017-10-29T00:09:17.100Z,8.50
2017-10-29T00:14:19.677Z,8.40
2017-10-29T00:19:22.288Z,8.40
2017-10-29T00:24:24.864Z,8.40
2017-10-29T00:29:27.460Z,8.40
2017-10-29T00:34:30.033Z,8.40
2017-10-29T00:39:32.618Z,8.40
2017-10-29T00:44:35.203Z,8.40
2017-10-29T00:49:37.813Z,8.30
2017-10-29T00:54:40.405Z,8.30
2017-10-29T00:59:43.016Z,8.20
2017-10-29T01:04:46.392Z,8.20
2017-10-29T01:09:49.016Z,8.20
2017-10-29T01:14:51.600Z,8.20
2017-10-29T01:19:54.199Z,8.20
2017-10-29T01:24:57.192Z,8.20
2017-10-29T01:30:00.157Z,8.20
2017-10-29T01:35:03.624Z,8.10
2017-10-29T01:40:06.218Z,8.10
2017-10-29T01:45:08.821Z,8.10
2017-10-29T01:50:11.440Z,8.10
2017-10-29T01:55:14.011Z,8.10
2017-10-29T02:00:16.578Z,8.10
2017-10-29T02:05:19.152Z,8.10
2017-10-29T02:10:21.732Z,8.10
2017-10-29T02:15:24.313Z,8.10
2017-10-29T02:20:26.861Z,8.10
2017-10-29T02:25:29.417Z,8.10
2017-10-29T02:30:32.011Z,8.10
2017-10-29T02:35:34.552Z,8.10
2017-10-29T02:40:37.881Z,8.10
2017-10-29T02:45:40.473Z,8.00
2017-10-29T02:50:43.055Z,8.10
2017-10-29T02:55:45.652Z,8.10
2017-10-29T03:00:48.216Z,8.10
2017-10-29T03:05:50.795Z,8.10
2017-10-29T03:10:54.153Z,8.10
2017-10-29T03:15:56.753Z,8.10
2017-10-29T03:20:59.318Z,8.10
2017-10-29T03:26:01.884Z,8.10
2017-10-29T03:31:04.449Z,8.10
2017-10-29T03:36:07.009Z,8.10
2017-10-29T03:41:09.556Z,8.10
2017-10-29T03:46:12.093Z,8.20
2017-10-29T03:51:14.651Z,8.20
2017-10-29T03:56:17.214Z,8.20
2017-10-29T04:01:19.801Z,8.20
2017-10-29T04:06:22.408Z,8.20
2017-10-29T04:11:25.177Z,8.30
2017-10-29T04:16:27.812Z,8.30
2017-10-29T04:21:30.404Z,8.30
2017-10-29T04:26:33.007Z,8.30
2017-10-29T04:31:35.590Z,8.30
2017-10-29T04:36:38.192Z,8.40
2017-10-29T04:41:40.906Z,8.40
2017-10-29T04:46:43.500Z,8.40
2017-10-29T04:51:46.071Z,8.50
2017-10-29T04:56:48.652Z,8.50
2017-10-29T05:01:51.224Z,8.50
2017-10-29T05:06:53.832Z,8.50
2017-10-29T05:17:05.313Z,8.50
2017-10-29T05:22:07.872Z,8.60
2017-10-29T05:27:11.216Z,8.60
2017-10-29T05:32:13.776Z,8.60
2017-10-29T05:37:16.316Z,8.60
2017-10-29T05:42:18.872Z,8.60
2017-10-29T05:47:21.435Z,8.60
2017-10-29T05:52:24.045Z,8.70
2017-10-29T05:57:26.778Z,8.70
2017-10-29T06:02:29.373Z,8.70
2017-10-29T06:07:31.923Z,8.70
2017-10-29T06:12:34.511Z,8.70
2017-10-29T06:17:37.101Z,8.80
2017-10-29T06:22:39.685Z,8.80
2017-10-29T06:27:42.322Z,8.90
2017-10-29T06:32:44.936Z,8.90
2017-10-29T06:37:47.538Z,9.00
2017-10-29T06:42:50.129Z,9.00
2017-10-29T06:47:52.733Z,9.00
2017-10-29T06:52:55.344Z,9.10
2017-10-29T06:57:57.964Z,9.10
2017-10-29T07:03:01.353Z,9.20
2017-10-29T07:08:03.934Z,9.20
2017-10-29T07:13:06.594Z,9.30
2017-10-29T07:18:10.017Z,9.40
2017-10-29T07:23:12.584Z,9.40
2017-10-29T07:28:15.434Z,9.50
2017-10-29T07:33:18.876Z,9.50
2017-10-29T07:38:21.464Z,9.50
2017-10-29T07:59:58.944Z,9.80
2017-10-29T08:05:03.176Z,9.80
2017-10-29T08:20:23.322Z,9.90
2017-10-29T08:25:27.389Z,10.00
2017-10-29T08:35:38.866Z,10.10
2017-10-29T08:40:48.571Z,10.10
2017-10-29T08:45:52.325Z,10.20
2017-10-29T08:50:54.928Z,10.20
2017-10-29T08:55:58.032Z,10.30
2017-10-29T09:01:00.686Z,10.30
2017-10-29T09:06:03.284Z,10.40
2017-10-29T09:11:05.925Z,10.40
2017-10-29T09:16:08.616Z,10.40
2017-10-29T09:21:12.004Z,10.40
2017-10-29T10:01:06.637Z,10.40
2017-10-29T10:06:09.244Z,10.40
2017-10-29T10:11:11.856Z,10.40
2017-10-29T10:16:14.416Z,10.40
2017-10-29T10:21:17.142Z,10.50
2017-10-29T10:26:19.993Z,10.60
2017-10-29T10:31:22.612Z,10.80
2017-10-29T10:36:25.241Z,10.90
2017-10-29T10:41:27.885Z,11.00
2017-10-29T10:46:30.579Z,11.00
2017-10-29T10:51:33.261Z,11.00
2017-10-29T10:56:36.808Z,11.30
2017-10-29T11:01:39.731Z,11.30
2017-10-29T11:06:42.455Z,11.40
2017-10-29T11:11:45.162Z,11.50
2017-10-29T11:16:47.861Z,11.60
2017-10-29T11:21:51.368Z,11.80
2017-10-29T11:26:54.010Z,11.80
2017-10-29T11:31:56.655Z,11.90
2017-10-29T11:36:59.320Z,11.80
2017-10-29T11:42:02.846Z,12.00
2017-10-29T11:47:05.553Z,11.90
2017-10-29T11:52:08.212Z,12.00
2017-10-29T11:57:10.867Z,12.10
2017-10-29T12:02:13.484Z,12.20
2017-10-29T12:07:16.568Z,12.40
2017-10-29T12:12:27.182Z,12.40
2017-10-29T12:23:18.823Z,12.60
2017-10-29T12:33:50.172Z,12.80
2017-10-29T12:44:15.013Z,12.70
2017-10-29T12:49:26.102Z,12.80
2017-10-29T12:54:39.446Z,12.90
2017-10-29T12:59:59.006Z,12.90
2017-10-29T13:05:12.401Z,13.00
2017-10-29T13:21:22.671Z,13.10
2017-10-29T13:26:26.410Z,13.10
2017-10-29T13:31:29.277Z,13.10
2017-10-29T13:36:33.775Z,13.00
2017-10-29T13:46:45.043Z,12.90
2017-10-29T13:51:47.714Z,12.90
2017-10-29T13:56:51.117Z,12.80
2017-10-29T14:01:53.966Z,12.70
2017-10-29T14:06:57.340Z,12.60
2017-10-29T14:12:01.501Z,12.50
2017-10-29T14:17:04.454Z,12.50
2017-10-29T14:22:08.007Z,12.40
2017-10-29T14:27:10.869Z,12.40
2017-10-29T14:32:13.534Z,12.30
2017-10-29T14:37:16.941Z,12.30
2017-10-29T14:42:19.767Z,12.20
2017-10-29T14:47:25.152Z,12.10
2017-10-29T14:52:28.129Z,12.00
2017-10-29T14:57:31.028Z,12.00
2017-10-29T15:02:34.353Z,11.90
2017-10-29T15:07:38.924Z,11.80
2017-10-29T15:12:41.754Z,11.70
2017-10-29T15:17:44.696Z,11.60
2017-10-29T15:22:47.509Z,11.50
2017-10-29T15:27:50.359Z,11.40
2017-10-29T15:32:53.820Z,11.30
2017-10-29T15:37:58.144Z,11.20
2017-10-29T15:43:00.915Z,11.10
2017-10-29T15:48:03.944Z,11.00
2017-10-29T15:53:06.605Z,10.90
2017-10-29T15:58:10.727Z,10.70
2017-10-29T16:03:16.401Z,10.60
2017-10-29T16:08:20.177Z,10.50
2017-10-29T16:13:23.411Z,10.50
2017-10-29T16:18:27.834Z,10.40
2017-10-29T16:23:32.105Z,10.30
2017-10-29T16:28:36.022Z,10.20
2017-10-29T16:33:39.655Z,10.10
2017-10-29T16:38:44.829Z,10.00
2017-10-29T16:43:48.337Z,9.90
2017-10-29T16:48:52.695Z,9.80
2017-10-29T16:53:56.223Z,9.80
2017-10-29T16:59:00.869Z,9.70
2017-10-29T17:04:03.761Z,9.70
2017-10-29T17:09:06.560Z,9.60
2017-10-29T17:14:10.987Z,9.60
2017-10-29T17:19:13.625Z,9.50
2017-10-29T17:24:16.493Z,9.40
2017-10-29T17:29:22.445Z,9.40
2017-10-29T17:34:27.207Z,9.30
2017-10-29T17:39:30.054Z,9.30
2017-10-29T17:44:32.910Z,9.20
2017-10-29T17:49:36.311Z,9.10
2017-10-29T17:54:39.095Z,9.10
2017-10-29T17:59:43.071Z,9.00
2017-10-29T18:04:47.072Z,9.00
2017-10-29T18:09:49.988Z,8.90
2017-10-29T18:14:54.164Z,8.80
2017-10-29T18:19:57.830Z,8.80
2017-10-29T18:25:01.171Z,8.80
2017-10-29T18:30:05.540Z,8.80
2017-10-29T18:35:09.742Z,8.70
2017-10-29T18:40:13.299Z,8.60
2017-10-29T18:45:16.813Z,8.60
2017-10-29T18:50:21.028Z,8.60
2017-10-29T18:55:23.697Z,8.60
2017-10-29T19:00:27.197Z,8.50
2017-10-29T19:05:29.914Z,8.50
2017-10-29T19:10:34.154Z,8.50
2017-10-29T19:15:37.170Z,8.40
2017-10-29T19:20:41.376Z,8.40
2017-10-29T19:25:44.056Z,8.30
2017-10-29T19:30:46.896Z,8.30
2017-10-29T19:35:49.612Z,8.30
2017-10-29T19:40:52.545Z,8.20
2017-10-29T19:45:55.258Z,8.20
2017-10-29T19:50:58.074Z,8.20
2017-10-29T19:56:01.454Z,8.20
2017-10-29T20:01:04.292Z,8.20
2017-10-29T20:06:07.921Z,8.20
2017-10-29T20:11:11.052Z,8.10
2017-10-29T20:16:14.492Z,8.20
2017-10-29T20:21:18.151Z,8.10
2017-10-29T20:26:21.972Z,8.10
2017-10-29T20:31:24.880Z,8.10
2017-10-29T20:36:27.656Z,8.10
2017-10-29T20:41:30.972Z,8.10
2017-10-29T20:46:34.040Z,8.10
2017-10-29T20:51:36.861Z,8.10
2017-10-29T20:56:39.889Z,8.00
2017-10-29T21:01:43.605Z,8.00
2017-10-29T21:06:46.401Z,8.00
2017-10-29T21:11:50.013Z,7.90
2017-10-29T21:16:54.405Z,7.90
2017-10-29T21:27:06.192Z,7.90
2017-10-29T21:42:29.039Z,7.80
2017-10-29T21:47:33.682Z,7.70
2017-10-29T21:52:38.091Z,7.70
2017-10-29T21:57:41.210Z,7.60
2017-10-29T22:02:45.307Z,7.50
2017-10-29T22:07:50.934Z,7.50
2017-10-29T22:12:54.636Z,7.50
2017-10-29T22:18:00.077Z,7.40
2017-10-29T22:23:05.613Z,7.40
2017-10-29T22:28:08.548Z,7.30
2017-10-29T22:33:14.997Z,7.30
2017-10-29T22:38:18.911Z,7.20
2017-10-29T22:43:24.847Z,7.20
2017-10-29T22:48:31.975Z,7.10
2017-10-29T22:53:36.045Z,7.10
2017-10-29T22:58:39.745Z,7.10
2017-10-29T23:03:44.567Z,7.10
2017-10-29T23:13:55.830Z,7.00
2017-10-29T23:18:59.511Z,7.00
2017-10-29T23:24:05.180Z,7.00
2017-10-29T23:29:12.899Z,7.00
2017-10-29T23:34:15.791Z,7.00
2017-10-29T23:39:21.067Z,6.90
2017-10-29T23:44:25.423Z,6.90
2017-10-29T23:49:29.245Z,6.90
2017-10-29T23:54:33.720Z,6.90
2017-10-29T23:59:37.255Z,6.80
